Time;durP1;ratioP1;P1;durP2;ratioP2;P2;SDS_P1;SDS_P2;PMS_P1;PMS_P2;Temp;Humidity;BMP_temperature;BMP_pressure;BME280_temperature;BME280_humidity;BME280_pressure;Samples;Min_cycle;Max_cycle;Signal;HPM_P1;HPM_P2
2023/10/02 00:01:24;;;;;;;1.73;1.20;;;16.40;1.00;;;;;;5085138;28;20069;-74
2023/10/02 00:04:16;;;;;;;1.83;1.23;;;16.40;1.00;;;;;;5084199;28;20051;-74
2023/10/02 00:06:38;;;;;;;1.80;1.30;;;16.30;1.00;;;;;;5087195;28;20157;-74
2023/10/02 00:09:05;;;;;;;2.00;1.33;;;16.30;1.00;;;;;;5062181;28;20107;-74
2023/10/02 00:11:41;;;;;;;1.25;1.00;;;16.30;1.00;;;;;;5063868;28;20254;-74
2023/10/02 00:14:19;;;;;;;1.70;1.10;;;16.20;99.90;;;;;;5066450;28;20052;-74
2023/10/02 00:17:08;;;;;;;1.65;1.10;;;16.20;1.00;;;;;;5076986;28;20539;-74
2023/10/02 00:19:39;;;;;;;1.48;1.05;;;16.20;1.00;;;;;;5102432;28;20062;-74
2023/10/02 00:25:07;;;;;;;1.55;1.20;;;16.10;1.00;;;;;;5101518;28;20159;-74
2023/10/02 00:27:34;;;;;;;1.50;1.08;;;16.10;99.90;;;;;;5100669;28;20484;-74
2023/10/02 00:30:02;;;;;;;1.00;0.90;;;16.10;99.90;;;;;;5102267;28;20278;-74
2023/10/02 00:32:29;;;;;;;1.58;1.25;;;16.20;99.90;;;;;;5100399;28;20052;-74
2023/10/02 00:34:59;;;;;;;1.58;1.15;;;16.20;99.90;;;;;;5074990;28;20066;-74
2023/10/02 00:37:43;;;;;;;1.75;1.27;;;16.20;99.90;;;;;;5063069;28;20425;-74
2023/10/02 00:40:20;;;;;;;1.48;1.10;;;16.30;99.90;;;;;;5076914;28;20052;-74
2023/10/02 00:45:59;;;;;;;1.95;1.25;;;16.30;99.90;;;;;;5094261;28;20080;-74
2023/10/02 00:48:30;;;;;;;2.10;1.10;;;16.30;99.90;;;;;;5066782;28;20127;-75
2023/10/02 00:51:05;;;;;;;1.80;1.27;;;16.30;99.90;;;;;;5082741;28;20123;-74
2023/10/02 00:53:42;;;;;;;1.52;1.20;;;16.30;99.90;;;;;;5084642;28;20142;-75
2023/10/02 00:56:24;;;;;;;1.83;1.33;;;16.40;99.90;;;;;;5069060;28;20047;-75
2023/10/02 00:58:55;;;;;;;1.88;1.33;;;16.40;99.90;;;;;;5086154;28;20088;-73
2023/10/02 01:01:23;;;;;;;1.58;1.48;;;16.40;99.90;;;;;;5100962;28;20051;-73
2023/10/02 01:04:23;;;;;;;1.52;1.17;;;16.40;99.90;;;;;;5064293;28;20055;-73
2023/10/02 01:06:54;;;;;;;2.17;1.40;;;16.40;90.70;;;;;;5085681;28;20047;-74
2023/10/02 01:09:25;;;;;;;1.52;1.23;;;16.40;99.90;;;;;;5070926;28;20385;-76
2023/10/02 01:11:57;;;;;;;1.75;1.38;;;16.40;99.90;;;;;;5088095;28;20134;-76
2023/10/02 01:17:14;;;;;;;1.27;1.00;;;16.30;99.90;;;;;;5090445;28;20047;-77
2023/10/02 01:19:53;;;;;;;1.38;1.13;;;16.30;99.90;;;;;;5087488;28;20047;-76
2023/10/02 01:22:30;;;;;;;1.52;1.10;;;16.30;99.90;;;;;;5100641;28;20130;-76
2023/10/02 01:25:16;;;;;;;1.23;1.10;;;16.30;99.90;;;;;;5086531;28;20464;-76
2023/10/02 01:27:50;;;;;;;1.48;1.17;;;16.30;99.90;;;;;;5088530;28;20293;-76
2023/10/02 01:30:18;;;;;;;;;;;16.20;99.90;;;;;;5068893;28;20490;-76
2023/10/02 01:35:53;;;;;;;1.67;1.23;;;16.20;99.90;;;;;;5084906;28;20337;-74
2023/10/02 01:38:29;;;;;;;1.90;1.30;;;16.20;99.90;;;;;;5080222;28;20048;-74
2023/10/02 01:41:03;;;;;;;2.13;1.50;;;16.20;99.90;;;;;;5085414;28;20543;-74
2023/10/02 01:43:35;;;;;;;2.20;1.23;;;16.20;99.90;;;;;;5104996;28;20489;-74
2023/10/02 01:46:06;;;;;;;1.80;1.60;;;16.20;99.90;;;;;;5100435;28;20044;-76
2023/10/02 01:48:36;;;;;;;1.80;1.38;;;16.20;99.90;;;;;;5101960;28;20085;-77
2023/10/02 01:51:20;;;;;;;2.17;1.80;;;16.10;99.90;;;;;;5102877;28;20150;-76
2023/10/02 01:54:19;;;;;;;1.70;1.40;;;16.10;99.90;;;;;;5086482;28;20431;-73
2023/10/02 01:56:46;;;;;;;2.10;1.70;;;16.10;99.90;;;;;;5101989;28;20035;-73
2023/10/02 01:59:19;;;;;;;1.80;1.55;;;16.10;99.90;;;;;;5102228;28;20097;-74
2023/10/02 02:01:54;;;;;;;1.80;1.40;;;16.10;99.90;;;;;;5102401;28;20515;-74
2023/10/02 02:04:22;;;;;;;2.08;1.20;;;16.00;99.90;;;;;;5088317;28;20044;-74
2023/10/02 02:06:51;;;;;;;1.70;1.50;;;16.00;99.90;;;;;;5070244;28;20047;-73
2023/10/02 02:09:25;;;;;;;2.20;1.33;;;16.00;1.00;;;;;;5102231;28;20165;-73
2023/10/02 02:12:08;;;;;;;1.77;1.40;;;16.00;1.00;;;;;;5103580;28;20538;-73
2023/10/02 02:14:51;;;;;;;1.77;1.48;;;15.90;1.00;;;;;;5088597;28;20092;-77
2023/10/02 02:17:21;;;;;;;1.98;1.58;;;15.90;1.00;;;;;;5103258;28;20070;-74
2023/10/02 02:19:52;;;;;;;1.35;1.17;;;15.90;1.00;;;;;;5087739;28;20512;-74
2023/10/02 02:22:25;;;;;;;2.20;1.77;;;15.90;1.00;;;;;;5103812;28;20055;-74
2023/10/02 02:24:56;;;;;;;1.75;1.40;;;15.80;1.00;;;;;;5100222;28;20104;-74
2023/10/02 02:27:23;;;;;;;1.95;1.75;;;15.80;1.00;;;;;;5105164;28;20046;-74
2023/10/02 02:29:54;;;;;;;2.42;1.70;;;15.80;1.00;;;;;;5104505;28;20493;-74
2023/10/02 02:32:36;;;;;;;2.53;1.75;;;15.80;1.00;;;;;;5071747;28;20051;-74
2023/10/02 02:35:04;;;;;;;1.85;1.58;;;15.80;31.40;;;;;;5102580;28;20058;-74
2023/10/02 02:37:32;;;;;;;1.45;1.15;;;15.70;12.30;;;;;;5086372;28;20043;-74
2023/10/02 02:40:22;;;;;;;1.65;1.35;;;15.70;53.90;;;;;;5100795;28;20594;-74
2023/10/02 02:42:51;;;;;;;2.17;1.50;;;15.70;75.70;;;;;;5104052;28;20051;-74
2023/10/02 02:45:28;;;;;;;1.92;1.35;;;15.70;1.00;;;;;;5086674;28;20052;-74
2023/10/02 02:48:03;;;;;;;1.60;1.20;;;15.70;13.50;;;;;;5104481;28;20043;-74
2023/10/02 02:50:34;;;;;;;2.00;1.63;;;15.70;44.90;;;;;;5100223;28;20051;-74
2023/10/02 02:53:21;;;;;;;1.98;1.60;;;15.70;65.00;;;;;;5086669;28;20043;-74
2023/10/02 02:56:15;;;;;;;1.75;1.38;;;15.70;1.00;;;;;;5085991;28;20075;-74
2023/10/02 02:58:48;;;;;;;1.48;1.33;;;15.70;1.00;;;;;;5103463;28;20104;-74
2023/10/02 03:01:21;;;;;;;2.25;1.60;;;15.80;50.70;;;;;;5087370;28;20104;-74
2023/10/02 03:03:49;;;;;;;1.63;1.33;;;15.80;12.80;;;;;;5072137;28;20092;-74
2023/10/02 03:06:23;;;;;;;1.40;1.30;;;15.90;91.60;;;;;;5104952;28;20520;-74
2023/10/02 03:08:52;;;;;;;2.25;1.52;;;15.90;99.90;;;;;;5082828;28;20059;-74
2023/10/02 03:11:23;;;;;;;1.48;1.23;;;16.00;99.90;;;;;;5103290;28;20044;-73
2023/10/02 03:13:50;;;;;;;2.03;1.60;;;16.00;99.90;;;;;;5103187;28;20051;-74
2023/10/02 03:16:28;;;;;;;2.42;1.80;;;16.10;99.90;;;;;;5084122;28;20387;-74
2023/10/02 03:18:56;;;;;;;2.17;1.58;;;16.10;99.90;;;;;;5087925;28;20047;-74
2023/10/02 03:21:24;;;;;;;1.60;1.30;;;16.20;99.90;;;;;;5069498;28;20222;-74
2023/10/02 03:23:53;;;;;;;1.98;1.63;;;16.20;99.90;;;;;;5104158;28;20054;-74
2023/10/02 03:29:04;;;;;;;2.42;1.90;;;16.30;1.00;;;;;;5092196;28;20043;-74
2023/10/02 03:31:49;;;;;;;2.53;1.83;;;16.30;1.00;;;;;;5085512;28;20040;-74
2023/10/02 03:34:27;;;;;;;2.20;1.98;;;16.30;1.00;;;;;;5091742;28;20342;-74
2023/10/02 03:37:12;;;;;;;2.13;1.85;;;16.30;1.00;;;;;;5091322;28;20058;-74
2023/10/02 03:39:59;;;;;;;2.10;1.73;;;16.30;26.70;;;;;;5105560;28;20039;-74
2023/10/02 03:42:31;;;;;;;1.83;1.52;;;16.40;53.00;;;;;;5092739;28;20040;-74
2023/10/02 03:45:00;;;;;;;2.28;2.03;;;16.40;99.90;;;;;;5106631;28;20067;-74
2023/10/02 03:47:33;;;;;;;2.17;1.67;;;16.50;98.50;;;;;;5073584;28;20043;-74
2023/10/02 03:50:01;;;;;;;1.92;1.52;;;16.50;93.80;;;;;;5106759;28;20055;-74
2023/10/02 03:52:30;;;;;;;2.50;2.00;;;16.50;99.90;;;;;;5089835;28;20046;-74
2023/10/02 03:54:57;;;;;;;2.08;1.80;;;16.60;99.90;;;;;;5071708;28;20054;-74
2023/10/02 04:00:27;;;;;;;2.15;1.63;;;16.60;99.90;;;;;;5063818;28;20668;-74
2023/10/02 04:02:56;;;;;;;1.85;1.65;;;16.70;48.20;;;;;;5098159;28;20043;-74
2023/10/02 04:05:31;;;;;;;1.98;1.70;;;16.70;27.70;;;;;;5073048;28;20043;-74
2023/10/02 04:08:22;;;;;;;2.00;1.70;;;16.70;34.70;;;;;;5058465;28;20366;-74
2023/10/02 04:10:56;;;;;;;1.65;1.42;;;16.70;47.70;;;;;;5108118;28;20035;-74
2023/10/02 04:13:32;;;;;;;1.75;1.50;;;16.70;69.60;;;;;;5107286;28;20127;-74
2023/10/02 04:19:06;;;;;;;1.75;1.48;;;16.80;1.00;;;;;;5043738;28;20041;-74
2023/10/02 04:21:33;;;;;;;1.83;1.52;;;16.80;27.20;;;;;;5011183;28;20049;-74
2023/10/02 04:24:04;;;;;;;1.80;1.45;;;16.80;1.00;;;;;;5073504;28;20277;-74
2023/10/02 04:26:33;;;;;;;1.90;1.30;;;16.80;1.00;;;;;;5089183;28;20404;-74
2023/10/02 04:32:04;;;;;;;1.63;1.38;;;16.80;1.00;;;;;;5089818;28;20046;-74
2023/10/02 04:34:31;;;;;;;2.47;1.77;;;16.80;14.80;;;;;;5103232;28;20435;-74
2023/10/02 04:36:58;;;;;;;1.20;1.02;;;16.80;1.00;;;;;;5069727;28;20048;-74
2023/10/02 04:42:19;;;;;;;1.60;1.30;;;16.80;12.30;;;;;;5105718;28;20130;-75
2023/10/02 04:44:48;;;;;;;2.10;1.33;;;16.70;22.60;;;;;;5091695;28;20055;-74
2023/10/02 04:47:19;;;;;;;1.55;1.45;;;16.70;73.80;;;;;;5088740;28;20057;-74
2023/10/02 04:55:24;;;;;;;1.77;1.50;;;16.80;83.80;;;;;;5101874;28;20308;-74
2023/10/02 04:57:54;;;;;;;1.65;1.17;;;16.80;1.00;;;;;;5086917;28;20043;-75
2023/10/02 05:00:32;;;;;;;1.40;1.20;;;16.80;1.00;;;;;;5102926;28;20043;-74
2023/10/02 05:03:21;;;;;;;1.80;1.27;;;16.80;1.00;;;;;;5098598;28;20055;-74
2023/10/02 05:05:53;;;;;;;1.92;1.30;;;16.80;1.00;;;;;;5101238;28;20310;-75
2023/10/02 05:08:21;;;;;;;1.85;1.42;;;16.80;1.00;;;;;;5084565;28;20366;-74
2023/10/02 05:11:05;;;;;;;2.35;1.65;;;16.80;1.00;;;;;;5086308;28;20134;-74
2023/10/02 05:13:53;;;;;;;2.03;1.58;;;16.70;1.00;;;;;;5070879;28;20136;-74
2023/10/02 05:16:33;;;;;;;2.78;1.95;;;16.70;1.00;;;;;;5072161;28;20611;-75
2023/10/02 05:19:04;;;;;;;2.58;1.83;;;16.70;11.90;;;;;;5088622;28;20325;-74
2023/10/02 05:21:49;;;;;;;2.17;1.70;;;16.70;14.90;;;;;;5102199;28;20512;-74
2023/10/02 05:24:18;;;;;;;1.83;1.42;;;16.60;20.00;;;;;;5099080;28;20079;-75
2023/10/02 05:26:46;;;;;;;2.40;1.45;;;16.60;10.80;;;;;;5097210;28;20043;-75
2023/10/02 05:29:17;;;;;;;1.70;1.30;;;16.60;99.90;;;;;;5101568;28;20043;-75
2023/10/02 05:31:45;;;;;;;1.80;1.40;;;16.50;99.60;;;;;;5105033;28;20335;-75
2023/10/02 05:34:25;;;;;;;1.83;1.30;;;16.50;99.90;;;;;;5101032;28;20765;-74
2023/10/02 05:37:11;;;;;;;1.67;1.25;;;16.50;99.90;;;;;;5103250;28;20135;-74
2023/10/02 05:39:39;;;;;;;1.50;1.35;;;16.50;99.90;;;;;;5065891;28;20047;-74
2023/10/02 05:42:13;;;;;;;1.73;1.40;;;16.50;99.90;;;;;;5065220;28;20056;-74
2023/10/02 05:44:44;;;;;;;2.00;1.48;;;16.50;99.90;;;;;;5099669;28;20098;-75
2023/10/02 05:47:15;;;;;;;1.75;1.48;;;16.50;99.90;;;;;;5102543;28;20051;-75
2023/10/02 05:49:47;;;;;;;2.15;1.50;;;16.50;99.90;;;;;;5068725;28;20046;-74
2023/10/02 05:52:15;;;;;;;1.75;1.50;;;16.50;99.90;;;;;;5100841;28;20656;-74
2023/10/02 05:54:53;;;;;;;1.48;1.27;;;16.50;99.90;;;;;;5098254;28;20043;-74
2023/10/02 05:57:21;;;;;;;2.28;1.58;;;16.50;99.90;;;;;;5083165;28;20485;-74
2023/10/02 05:59:54;;;;;;;2.17;1.70;;;16.50;99.90;;;;;;5083771;28;20104;-75
2023/10/02 06:02:22;;;;;;;1.50;1.30;;;16.50;99.90;;;;;;5100505;28;20047;-74
2023/10/02 06:04:52;;;;;;;2.53;1.70;;;16.50;99.90;;;;;;5099016;28;20112;-74
2023/10/02 06:10:18;;;;;;;2.08;1.45;;;16.50;99.90;;;;;;5098166;28;21060;-75
2023/10/02 06:12:47;;;;;;;1.58;1.25;;;16.50;99.90;;;;;;5102527;28;20047;-74
2023/10/02 06:18:01;;;;;;;1.63;1.20;;;16.50;99.90;;;;;;5101020;28;20043;-74
2023/10/02 06:20:29;;;;;;;2.00;1.48;;;16.50;99.90;;;;;;5097632;28;20039;-75
2023/10/02 06:23:05;;;;;;;1.40;1.30;;;16.60;99.90;;;;;;5101713;28;20361;-74
2023/10/02 06:25:32;;;;;;;1.92;1.33;;;16.60;99.90;;;;;;5080087;28;20051;-74
2023/10/02 06:28:19;;;;;;;1.10;0.90;;;16.60;99.90;;;;;;5068537;28;20524;-74
2023/10/02 06:30:48;;;;;;;1.17;0.95;;;16.60;99.90;;;;;;5080421;28;20052;-75
2023/10/02 06:33:17;;;;;;;1.63;1.02;;;16.70;99.90;;;;;;5099429;28;20105;-75
2023/10/02 06:35:56;;;;;;;1.25;0.93;;;16.70;99.90;;;;;;5063245;28;20101;-75
2023/10/02 06:38:23;;;;;;;2.35;1.33;;;16.70;53.80;;;;;;5081122;28;20532;-75
2023/10/02 06:40:56;;;;;;;1.42;1.00;;;16.70;1.00;;;;;;5079099;28;20489;-75
2023/10/02 06:43:30;;;;;;;0.80;0.77;;;16.80;1.00;;;;;;5083191;28;20047;-75
2023/10/02 06:46:13;;;;;;;0.88;0.73;;;16.80;1.00;;;;;;5086825;28;20133;-74
2023/10/02 06:48:43;;;;;;;1.15;0.80;;;16.80;1.00;;;;;;5087505;28;20048;-75
2023/10/02 06:51:13;;;;;;;0.93;0.80;;;16.80;1.00;;;;;;5103934;28;20058;-75
2023/10/02 06:53:43;;;;;;;1.27;0.90;;;16.80;99.90;;;;;;5073516;28;20104;-75
2023/10/02 06:56:13;;;;;;;1.10;0.85;;;16.80;1.00;;;;;;5103804;28;20506;-75
2023/10/02 06:58:49;;;;;;;1.70;1.00;;;16.80;99.90;;;;;;5103221;28;20048;-75
2023/10/02 07:01:19;;;;;;;1.60;0.90;;;16.80;99.90;;;;;;5091492;28;20081;-74
2023/10/02 07:03:53;;;;;;;0.80;0.80;;;16.80;1.00;;;;;;5101955;28;20489;-74
2023/10/02 07:06:20;;;;;;;1.55;1.20;;;16.80;1.00;;;;;;5080534;28;20079;-74
2023/10/02 07:08:48;;;;;;;1.23;0.98;;;16.80;99.90;;;;;;5089407;28;20048;-75
2023/10/02 07:11:18;;;;;;;1.73;1.25;;;16.80;1.00;;;;;;5097482;28;20067;-74
2023/10/02 07:13:56;;;;;;;2.17;1.55;;;16.80;1.00;;;;;;5086257;28;20048;-73
2023/10/02 07:16:24;;;;;;;1.52;1.33;;;16.80;1.00;;;;;;5096297;28;20178;-74
2023/10/02 07:18:53;;;;;;;1.05;0.90;;;16.80;84.80;;;;;;5102637;28;20063;-75
2023/10/02 07:21:21;;;;;;;1.30;1.20;;;16.80;33.30;;;;;;5100495;28;20051;-74
2023/10/02 07:23:49;;;;;;;1.45;1.05;;;16.80;1.00;;;;;;5099378;28;20071;-75
2023/10/02 07:26:19;;;;;;;2.28;1.58;;;16.90;1.00;;;;;;5104407;28;20130;-75
2023/10/02 07:28:53;;;;;;;2.53;1.95;;;16.90;1.00;;;;;;5068991;28;20142;-74
2023/10/02 07:31:22;;;;;;;1.75;1.40;;;16.80;1.00;;;;;;5106895;28;20039;-74
2023/10/02 07:33:55;;;;;;;2.25;1.65;;;16.80;1.00;;;;;;5088609;28;20052;-75
2023/10/02 07:36:26;;;;;;;1.50;1.20;;;16.80;1.00;;;;;;5089787;28;20051;-74
2023/10/02 07:38:54;;;;;;;1.65;1.10;;;16.90;1.00;;;;;;5103460;28;20050;-74
2023/10/02 07:41:24;;;;;;;1.02;0.88;;;16.90;1.00;;;;;;5099387;28;20129;-75
2023/10/02 07:43:55;;;;;;;1.15;0.95;;;17.00;1.00;;;;;;5089624;28;20051;-75
2023/10/02 07:46:22;;;;;;;1.30;1.00;;;17.00;1.00;;;;;;5090559;28;20136;-74
2023/10/02 07:48:57;;;;;;;1.23;0.98;;;17.00;1.00;;;;;;5089620;28;20121;-75
2023/10/02 07:51:30;;;;;;;1.25;0.93;;;17.10;99.90;;;;;;5075076;28;20084;-74
2023/10/02 07:53:58;;;;;;;;;;;17.10;99.90;;;;;;5105366;28;20083;-74
2023/10/02 07:56:27;;;;;;;1.05;0.73;;;17.10;99.90;;;;;;5107703;28;19926;-75
2023/10/02 07:59:01;;;;;;;1.30;1.00;;;17.20;99.90;;;;;;5105731;28;20132;-75
2023/10/02 08:01:29;;;;;;;1.30;0.90;;;17.20;99.90;;;;;;5106247;28;20055;-75
2023/10/02 08:03:56;;;;;;;1.20;0.98;;;17.30;99.90;;;;;;5104284;28;20072;-75
2023/10/02 08:06:33;;;;;;;1.10;0.85;;;17.30;99.90;;;;;;5094061;28;20446;-75
2023/10/02 08:11:50;;;;;;;0.77;0.70;;;17.50;33.00;;;;;;5102544;28;20091;-74
2023/10/02 08:14:42;;;;;;;0.60;0.60;;;17.50;1.00;;;;;;5105378;28;20116;-75
2023/10/02 08:19:54;;;;;;;1.20;0.82;;;17.60;93.70;;;;;;5089313;28;20079;-74
2023/10/02 08:22:44;;;;;;;0.95;0.73;;;17.60;6.50;;;;;;5088236;28;20044;-74
2023/10/02 08:25:15;;;;;;;0.95;0.75;;;17.70;99.90;;;;;;5101555;28;20066;-74
2023/10/02 08:28:07;;;;;;;0.93;0.75;;;17.80;1.00;;;;;;5101094;28;20062;-75
2023/10/02 08:30:36;;;;;;;1.05;0.88;;;17.90;1.00;;;;;;5104251;28;20570;-74
2023/10/02 08:33:08;;;;;;;1.10;0.75;;;17.90;99.90;;;;;;5102090;28;20054;-75
2023/10/02 08:35:55;;;;;;;1.20;0.80;;;18.00;99.90;;;;;;5090972;28;20051;-74
2023/10/02 08:38:22;;;;;;;0.90;0.70;;;18.00;99.90;;;;;;5089552;28;20054;-75
2023/10/02 08:40:59;;;;;;;1.35;1.05;;;18.10;99.90;;;;;;5093911;28;20074;-75
2023/10/02 08:43:27;;;;;;;0.90;0.80;;;18.20;36.40;;;;;;5078364;28;20039;-75
2023/10/02 08:45:54;;;;;;;1.55;1.10;;;18.30;99.90;;;;;;5099027;28;20048;-75
2023/10/02 08:48:22;;;;;;;1.25;1.00;;;18.30;99.90;;;;;;5094988;28;20134;-75
2023/10/02 08:50:49;;;;;;;1.05;0.85;;;18.30;1.00;;;;;;5099716;28;20056;-75
2023/10/02 08:53:23;;;;;;;1.40;1.00;;;18.40;99.90;;;;;;5097650;28;20057;-74
2023/10/02 08:56:56;;;;;;;0.60;0.52;;;18.50;1.00;;;;;;5097418;28;20048;-74
2023/10/02 08:59:16;;;;;;;0.93;0.80;;;18.60;99.90;;;;;;5081225;28;20055;-74
2023/10/02 09:01:47;;;;;;;1.08;0.88;;;18.60;1.00;;;;;;5063668;28;20170;-74
2023/10/02 09:06:58;;;;;;;0.70;0.60;;;18.70;1.00;;;;;;5098892;28;20516;-75
2023/10/02 09:09:27;;;;;;;1.25;0.90;;;18.80;1.00;;;;;;5097529;28;20048;-75
2023/10/02 09:11:57;;;;;;;0.82;0.80;;;18.90;99.90;;;;;;5082375;28;20462;-74
2023/10/02 09:17:18;;;;;;;1.10;1.00;;;19.00;99.90;;;;;;5083084;28;20146;-74
2023/10/02 09:19:49;;;;;;;1.50;0.80;;;19.00;99.90;;;;;;5084655;28;20146;-74
2023/10/02 09:22:17;;;;;;;1.02;0.90;;;19.10;99.90;;;;;;5083185;28;20063;-75
2023/10/02 09:24:57;;;;;;;1.23;1.00;;;19.30;99.90;;;;;;5079273;28;20447;-75
2023/10/02 09:27:30;;;;;;;1.30;1.05;;;19.30;99.90;;;;;;5099205;28;20089;-75
2023/10/02 09:32:49;;;;;;;1.10;0.90;;;19.50;99.90;;;;;;5100051;28;20047;-74
2023/10/02 09:35:25;;;;;;;0.77;0.73;;;19.70;99.90;;;;;;5095296;28;20058;-75
2023/10/02 09:38:17;;;;;;;0.98;0.88;;;19.80;99.90;;;;;;5098709;28;20241;-74
2023/10/02 09:40:54;;;;;;;0.97;0.80;;;19.90;99.90;;;;;;5096278;28;20089;-74
2023/10/02 09:43:23;;;;;;;1.00;0.90;;;19.90;99.90;;;;;;5088214;28;20054;-75
2023/10/02 09:45:58;;;;;;;1.45;1.02;;;20.10;99.90;;;;;;5098724;28;20051;-74
2023/10/02 09:48:46;;;;;;;1.00;0.90;;;20.20;90.80;;;;;;5076576;28;20053;-74
2023/10/02 09:51:20;;;;;;;0.50;0.50;;;20.50;49.70;;;;;;5097118;28;20063;-74
2023/10/02 09:54:04;;;;;;;0.88;0.80;;;20.60;36.90;;;;;;5062666;28;20467;-74
2023/10/02 09:56:38;;;;;;;0.88;0.75;;;20.80;27.60;;;;;;5097176;28;20154;-75
2023/10/02 09:59:17;;;;;;;0.90;0.70;;;20.80;10.40;;;;;;5094894;28;20147;-75
2023/10/02 10:02:07;;;;;;;0.90;0.80;;;20.90;10.80;;;;;;5077712;28;20493;-75
2023/10/02 10:10:27;;;;;;;0.70;0.70;;;21.10;1.00;;;;;;5084068;28;20130;-75
2023/10/02 10:12:55;;;;;;;0.70;0.70;;;21.10;1.00;;;;;;5098140;28;20204;-75
2023/10/02 10:15:27;;;;;;;0.70;0.60;;;21.10;1.00;;;;;;5097849;28;20363;-74
2023/10/02 10:17:56;;;;;;;1.00;0.80;;;21.30;1.00;;;;;;5095959;28;20101;-74
2023/10/02 10:20:26;;;;;;;1.02;0.73;;;21.40;1.00;;;;;;5093978;28;20079;-75
2023/10/02 10:22:57;;;;;;;0.70;0.70;;;21.60;1.00;;;;;;5074767;28;20110;-75
2023/10/02 10:25:33;;;;;;;0.80;0.80;;;21.80;1.00;;;;;;5067471;28;20219;-74
2023/10/02 10:28:08;;;;;;;0.68;0.60;;;21.90;1.00;;;;;;5089384;28;20055;-73
2023/10/02 10:30:43;;;;;;;0.60;0.60;;;22.00;1.00;;;;;;5050791;28;20048;-75
2023/10/02 10:35:48;;;;;;;1.40;0.85;;;22.10;1.00;;;;;;5103816;28;20408;-75
2023/10/02 10:38:22;;;;;;;0.90;0.77;;;22.20;1.00;;;;;;5102386;28;20765;-75
2023/10/02 10:40:55;;;;;;;1.13;1.00;;;22.30;1.00;;;;;;5103930;28;20457;-74
2023/10/02 10:43:26;;;;;;;2.38;1.50;;;22.20;1.00;;;;;;5103456;28;20144;-75
2023/10/02 10:45:54;;;;;;;1.60;1.35;;;22.30;1.00;;;;;;5103455;28;20047;-75
2023/10/02 10:48:22;;;;;;;1.70;1.40;;;22.20;1.00;;;;;;5085883;28;20059;-75
2023/10/02 10:50:59;;;;;;;1.42;1.23;;;22.10;1.00;;;;;;5103787;28;20485;-75
2023/10/02 10:53:29;;;;;;;1.30;1.10;;;22.00;1.00;;;;;;5084646;28;20374;-75
2023/10/02 10:56:03;;;;;;;1.25;1.05;;;22.10;1.00;;;;;;5103217;28;20055;-75
2023/10/02 10:58:36;;;;;;;1.30;1.00;;;22.10;1.00;;;;;;5085111;28;20052;-74
2023/10/02 11:01:03;;;;;;;0.75;0.68;;;22.20;1.00;;;;;;5070437;28;20112;-74
2023/10/02 11:03:30;;;;;;;0.82;0.75;;;22.30;1.00;;;;;;5101964;28;20249;-74
2023/10/02 11:06:04;;;;;;;0.90;0.80;;;22.30;1.00;;;;;;5084554;28;20092;-74
2023/10/02 11:08:33;;;;;;;0.52;0.52;;;22.20;1.00;;;;;;5083155;28;20122;-74
2023/10/02 11:11:18;;;;;;;1.38;1.02;;;22.20;2.20;;;;;;5068722;28;20390;-75
2023/10/02 11:14:02;;;;;;;0.82;0.77;;;22.10;1.00;;;;;;5101227;28;20146;-75
2023/10/02 11:16:36;;;;;;;1.15;0.80;;;22.00;1.00;;;;;;5086814;28;20445;-75
2023/10/02 11:19:11;;;;;;;0.77;0.77;;;22.00;1.00;;;;;;5100996;28;20058;-75
2023/10/02 11:21:47;;;;;;;0.65;0.65;;;21.90;1.00;;;;;;5101038;28;20636;-75
2023/10/02 11:24:23;;;;;;;0.80;0.60;;;22.00;1.00;;;;;;5100541;28;20073;-75
2023/10/02 11:26:53;;;;;;;0.50;0.50;;;22.00;1.00;;;;;;5101374;28;20043;-75
2023/10/02 11:29:20;;;;;;;0.70;0.60;;;22.20;1.00;;;;;;5084559;28;20146;-75
2023/10/02 11:32:18;;;;;;;0.73;0.50;;;22.30;1.00;;;;;;5101306;28;20162;-75
2023/10/02 11:34:46;;;;;;;0.73;0.70;;;22.50;1.00;;;;;;5100920;28;20059;-74
2023/10/02 11:37:13;;;;;;;1.23;0.82;;;22.60;1.00;;;;;;5067455;28;20066;-74
2023/10/02 11:39:40;;;;;;;0.80;0.70;;;22.80;1.00;;;;;;5083208;28;20079;-74
2023/10/02 11:42:07;;;;;;;0.63;0.60;;;22.90;1.00;;;;;;5083753;28;20055;-74
2023/10/02 11:44:34;;;;;;;0.70;0.70;;;23.00;1.00;;;;;;5083027;28;20044;-74
2023/10/02 11:47:01;;;;;;;1.15;0.98;;;23.10;1.00;;;;;;5101002;28;20063;-74
2023/10/02 11:49:29;;;;;;;0.93;0.80;;;23.20;1.00;;;;;;5100140;28;20047;-74
2023/10/02 11:52:00;;;;;;;1.20;1.00;;;23.30;1.00;;;;;;5101062;28;20409;-74
2023/10/02 11:54:27;;;;;;;1.67;1.48;;;23.40;1.00;;;;;;5082634;28;20059;-74
2023/10/02 11:56:54;;;;;;;1.98;1.20;;;23.50;1.00;;;;;;5102097;28;20057;-74
2023/10/02 11:59:21;;;;;;;1.10;1.00;;;23.70;1.00;;;;;;5098530;28;20056;-76
2023/10/02 12:01:48;;;;;;;1.13;0.80;;;23.60;1.00;;;;;;5102068;28;20051;-75
2023/10/02 12:04:15;;;;;;;0.85;0.80;;;23.70;1.00;;;;;;5099344;28;20055;-75
2023/10/02 12:06:42;;;;;;;0.60;0.60;;;23.70;1.00;;;;;;5079446;28;20052;-75
2023/10/02 12:09:17;;;;;;;1.15;0.93;;;23.70;1.00;;;;;;5098972;28;20221;-75
2023/10/02 12:11:44;;;;;;;0.80;0.80;;;23.70;1.00;;;;;;5101276;28;20083;-75
2023/10/02 12:14:11;;;;;;;0.90;0.75;;;23.80;1.00;;;;;;5099522;28;20055;-75
2023/10/02 12:16:38;;;;;;;0.82;0.60;;;23.70;1.00;;;;;;5101011;28;20087;-75
2023/10/02 12:19:08;;;;;;;0.57;0.57;;;23.50;1.00;;;;;;5093500;28;20554;-75
2023/10/02 12:21:36;;;;;;;0.50;0.50;;;23.60;1.00;;;;;;5100271;28;20047;-76
2023/10/02 12:24:05;;;;;;;0.60;0.50;;;23.70;1.00;;;;;;5098837;28;20055;-75
2023/10/02 12:26:32;;;;;;;0.43;0.43;;;23.70;1.00;;;;;;5101516;28;20366;-76
2023/10/02 12:29:00;;;;;;;0.55;0.55;;;24.00;1.00;;;;;;5100153;28;20081;-76
2023/10/02 12:31:30;;;;;;;0.70;0.60;;;24.30;1.00;;;;;;5100748;28;20398;-76
2023/10/02 12:33:56;;;;;;;0.45;0.45;;;24.60;1.00;;;;;;5099490;28;20051;-76
2023/10/02 12:36:23;;;;;;;0.63;0.50;;;24.50;1.00;;;;;;5100607;28;20044;-76
2023/10/02 12:38:50;;;;;;;0.38;0.38;;;24.40;1.00;;;;;;5098359;28;20051;-75
2023/10/02 12:41:21;;;;;;;0.50;0.50;;;24.20;1.00;;;;;;5082250;28;20051;-76
2023/10/02 12:43:56;;;;;;;0.68;0.60;;;24.10;1.00;;;;;;5099040;28;20229;-75
2023/10/02 12:46:24;;;;;;;0.63;0.47;;;24.00;1.00;;;;;;5083534;28;20125;-76
2023/10/02 12:48:51;;;;;;;0.77;0.50;;;23.90;1.00;;;;;;5100126;28;20051;-75
2023/10/02 12:51:19;;;;;;;0.65;0.57;;;23.70;1.00;;;;;;5083421;28;20572;-75
2023/10/02 12:53:46;;;;;;;0.38;0.38;;;23.70;1.00;;;;;;5098269;28;20050;-76
2023/10/02 12:56:18;;;;;;;0.40;0.40;;;23.50;1.00;;;;;;5098251;28;20047;-76
2023/10/02 12:58:48;;;;;;;0.80;0.63;;;23.30;1.00;;;;;;5077956;28;20052;-75
2023/10/02 13:01:19;;;;;;;0.68;0.50;;;23.20;1.00;;;;;;5083123;28;20052;-76
2023/10/02 13:03:46;;;;;;;1.42;0.90;;;23.00;1.00;;;;;;5100369;28;20054;-75
2023/10/02 13:06:13;;;;;;;0.80;0.60;;;22.90;1.00;;;;;;5099654;27;20062;-75
2023/10/02 13:08:41;;;;;;;0.65;0.50;;;22.80;1.00;;;;;;5081990;28;20138;-75
2023/10/02 13:11:18;;;;;;;0.90;0.60;;;22.80;1.00;;;;;;5082612;28;20043;-75
2023/10/02 13:13:46;;;;;;;0.50;0.50;;;22.80;1.00;;;;;;5082715;28;20055;-75
2023/10/02 13:16:13;;;;;;;0.57;0.52;;;22.70;1.00;;;;;;5061253;28;20063;-75
2023/10/02 13:18:40;;;;;;;0.65;0.60;;;22.70;1.00;;;;;;5079824;28;20048;-76
2023/10/02 13:21:08;;;;;;;0.30;0.30;;;22.60;1.00;;;;;;5064417;28;21026;-76
2023/10/02 13:23:36;;;;;;;0.85;0.57;;;22.50;1.00;;;;;;5097585;28;20122;-76
2023/10/02 13:26:10;;;;;;;0.82;0.77;;;22.50;1.00;;;;;;5062821;28;20060;-76
2023/10/02 13:28:37;;;;;;;0.60;0.60;;;22.40;1.00;;;;;;5093620;28;20052;-75
2023/10/02 13:31:12;;;;;;;0.80;0.55;;;22.40;1.00;;;;;;5100350;28;20139;-76
2023/10/02 13:33:52;;;;;;;1.20;0.65;;;22.40;1.00;;;;;;5056901;28;20158;-76
2023/10/02 13:36:22;;;;;;;0.60;0.50;;;22.40;1.00;;;;;;5089927;28;20051;-76
2023/10/02 13:38:51;;;;;;;1.05;0.75;;;22.40;1.00;;;;;;5098100;28;20236;-76
2023/10/02 13:41:18;;;;;;;0.55;0.47;;;22.50;1.00;;;;;;5098407;28;20059;-76
2023/10/02 13:43:47;;;;;;;0.65;0.60;;;22.40;1.00;;;;;;5081484;28;20142;-76
2023/10/02 13:46:17;;;;;;;0.85;0.63;;;22.40;1.00;;;;;;5086876;28;20071;-76
2023/10/02 13:48:44;;;;;;;0.70;0.55;;;22.40;1.00;;;;;;5094008;28;20051;-76
2023/10/02 13:51:13;;;;;;;0.70;0.52;;;22.30;1.00;;;;;;5095675;28;20040;-76
2023/10/02 13:53:41;;;;;;;0.93;0.75;;;22.40;1.00;;;;;;5082567;28;20063;-76
2023/10/02 13:56:13;;;;;;;0.55;0.47;;;22.40;1.00;;;;;;5097995;28;20039;-75
2023/10/02 13:58:41;;;;;;;0.50;0.43;;;22.20;1.00;;;;;;5064935;28;20414;-75
2023/10/02 14:01:08;;;;;;;0.70;0.57;;;22.20;1.00;;;;;;5058551;28;20044;-75
2023/10/02 14:03:35;;;;;;;0.60;0.60;;;22.00;1.00;;;;;;5048897;28;20131;-76
2023/10/02 14:06:07;;;;;;;0.57;0.50;;;21.90;1.00;;;;;;5063589;28;20055;-76
2023/10/02 14:08:35;;;;;;;0.60;0.50;;;21.80;1.00;;;;;;5079578;28;20082;-76
2023/10/02 14:11:02;;;;;;;0.63;0.50;;;21.70;1.00;;;;;;5080703;28;20409;-77
2023/10/02 14:13:29;;;;;;;0.93;0.70;;;21.70;1.00;;;;;;5063207;28;20043;-76
2023/10/02 14:16:01;;;;;;;0.50;0.50;;;21.70;1.00;;;;;;5073476;28;20417;-75
2023/10/02 14:18:29;;;;;;;1.73;0.90;;;21.70;1.00;;;;;;5096536;28;20063;-75
2023/10/02 14:20:59;;;;;;;0.88;0.60;;;21.70;1.00;;;;;;5085911;28;20140;-75